»·PEaware :: CAX352 KPSP-KSJC

CAX352 :: KPSP-KSJC

FLIGHT INFORMATION

Flight Status: Arrived
Operator:
California Airlines (website)
More flights by this operator :: More flights under this callsign
Pilot: Dan K. (1691)
Aircraft: BOEING 737-800
(B738)
More flights by this aircraft type
Origin: KPSP Palm Springs Intl
United States
Destination: KSJC Mineta San Jose Intl
United States
More flights between these airports :: More routes between these airports
Route: +CATH1 PSP V386 PMD J6 AVE MAKRS TROXX SILCN4
File this flight plan on PilotEdge
Remarks:
Altitude:
(Current/Filed)
36,000ft
Speed:
(Current/Filed)
450kts
Departed: 23-Sep-17 04:33 PM
Arrived: 23-Sep-17 05:44 PM
Distance/Time
Traveled:
339nm/1:11
Distance/Time
To Go:
Arrived

Flight Plot

Page will automatically refresh every two minutes.

Flight plan parsing failed; only flown route is shown


Map Options




Map Legend


Flown Route
Filed Route
Departure Airport
Arrival Airport
Navaid (VOR, NDB)
Fix

Horizontal Profiles

Position Reports

Time Latitude Longitude Heading Altitude Ground
Speed
23-Sep-17 16:16 33.822510 -116.506179 322 484ft 0kts
23-Sep-17 16:17 33.822510 -116.506179 322 484ft 0kts
23-Sep-17 16:18 33.822510 -116.506179 322 484ft 0kts
23-Sep-17 16:19 33.822510 -116.506179 322 484ft 0kts
23-Sep-17 16:20 33.822510 -116.506179 322 484ft 0kts
23-Sep-17 16:21 33.822510 -116.506179 322 484ft 0kts
23-Sep-17 16:22 33.822510 -116.506179 322 484ft 0kts
23-Sep-17 16:23 33.822510 -116.506179 322 484ft 0kts
23-Sep-17 16:24 33.822510 -116.506179 322 484ft 0kts
23-Sep-17 16:25 33.822510 -116.506179 322 484ft 0kts
23-Sep-17 16:26 33.822510 -116.506179 322 484ft 0kts
23-Sep-17 16:27 33.822510 -116.506179 322 484ft 0kts
23-Sep-17 16:28 33.822457 -116.506127 325 485ft 2kts
23-Sep-17 16:29 33.821923 -116.505935 16 485ft 1kts
23-Sep-17 16:30 33.821756 -116.506022 23 485ft 0kts
23-Sep-17 16:31 33.821756 -116.506022 23 485ft 0kts
23-Sep-17 16:32 33.822353 -116.505399 51 485ft 6kts
23-Sep-17 16:33 33.823000 -116.504344 64 485ft 5kts
23-Sep-17 16:34 33.821039 -116.501970 144 484ft 16kts
23-Sep-17 16:35 33.818531 -116.499244 91 485ft 2kts
23-Sep-17 16:36 33.818752 -116.498364 36 485ft 5kts
23-Sep-17 16:37 33.831697 -116.509463 322 539ft 167kts
23-Sep-17 16:38 33.868592 -116.544441 320 2998ft 191kts
23-Sep-17 16:39 33.919275 -116.564287 41 4627ft 227kts
23-Sep-17 16:40 33.907001 -116.496098 121 7244ft 246kts
23-Sep-17 16:41 33.868114 -116.425141 116 9445ft 286kts
23-Sep-17 16:42 33.829489 -116.333626 109 11335ft 343kts
23-Sep-17 16:43 33.873030 -116.253974 359 14166ft 328kts
23-Sep-17 16:44 33.932179 -116.324266 297 17334ft 331kts
23-Sep-17 16:45 33.972819 -116.422924 297 20549ft 340kts
23-Sep-17 16:46 34.014360 -116.524028 297 23412ft 348kts
23-Sep-17 16:47 34.057032 -116.628194 297 25975ft 357kts
23-Sep-17 16:48 34.095125 -116.721444 296 28038ft 363kts
23-Sep-17 16:49 34.138906 -116.828930 295 30169ft 370kts
23-Sep-17 16:50 34.183831 -116.939705 295 32127ft 376kts
23-Sep-17 16:51 34.228672 -117.050778 296 33907ft 379kts
23-Sep-17 16:52 34.274211 -117.163981 296 35328ft 386kts
23-Sep-17 16:53 34.320562 -117.279364 296 35977ft 390kts
23-Sep-17 16:54 34.366025 -117.392991 296 35964ft 386kts
23-Sep-17 16:55 34.411935 -117.508068 296 35947ft 386kts
23-Sep-17 16:56 34.457828 -117.623506 296 35946ft 385kts
23-Sep-17 16:57 34.501417 -117.733587 296 35954ft 386kts
23-Sep-17 16:58 34.546183 -117.846932 296 35954ft 386kts
23-Sep-17 16:59 34.591398 -117.961841 296 35951ft 385kts
23-Sep-17 17:00 34.640781 -118.073993 307 35964ft 386kts
23-Sep-17 17:01 34.706081 -118.171033 308 35945ft 386kts
23-Sep-17 17:02 34.773281 -118.268512 308 35938ft 386kts
23-Sep-17 17:03 34.840046 -118.365307 308 35944ft 386kts
23-Sep-17 17:04 34.906222 -118.461532 308 35979ft 388kts
23-Sep-17 17:05 34.973571 -118.559721 309 36012ft 395kts
23-Sep-17 17:06 35.033817 -118.662858 302 36022ft 403kts
23-Sep-17 17:07 35.086692 -118.773190 301 36005ft 403kts
23-Sep-17 17:08 35.140551 -118.887235 301 35974ft 399kts
23-Sep-17 17:09 35.193242 -118.999235 303 35953ft 396kts
23-Sep-17 17:10 35.246686 -119.113050 303 35948ft 395kts
23-Sep-17 17:11 35.300118 -119.227272 304 35946ft 394kts
23-Sep-17 17:12 35.353515 -119.341866 303 35940ft 394kts
23-Sep-17 17:13 35.407029 -119.457105 303 35939ft 394kts
23-Sep-17 17:14 35.460512 -119.572673 303 35938ft 394kts
23-Sep-17 17:15 35.513436 -119.687396 303 35951ft 395kts
23-Sep-17 17:16 35.566652 -119.803127 303 35950ft 394kts
23-Sep-17 17:17 35.619953 -119.919464 303 35948ft 395kts
23-Sep-17 17:18 35.652193 -120.045630 285 35943ft 409kts
23-Sep-17 17:19 35.666631 -120.179358 284 35940ft 410kts
23-Sep-17 17:20 35.680197 -120.315019 288 35926ft 406kts
23-Sep-17 17:21 35.730324 -120.431410 305 34889ft 397kts
23-Sep-17 17:22 35.788503 -120.543261 306 32899ft 403kts
23-Sep-17 17:23 35.846524 -120.653407 306 30934ft 393kts
23-Sep-17 17:24 35.901895 -120.758633 306 29195ft 375kts
23-Sep-17 17:25 35.956775 -120.863170 306 27723ft 372kts
23-Sep-17 17:26 36.013883 -120.962452 320 26202ft 362kts
23-Sep-17 17:27 36.088466 -121.036984 323 24748ft 358kts
23-Sep-17 17:28 36.144768 -121.091013 323 23817ft 354kts
23-Sep-17 17:29 36.219939 -121.162830 324 22669ft 349kts
23-Sep-17 17:30 36.294809 -121.234429 324 21499ft 344kts
23-Sep-17 17:31 36.368055 -121.304675 324 20331ft 339kts
23-Sep-17 17:32 36.440289 -121.374293 324 18641ft 334kts
23-Sep-17 17:33 36.514110 -121.435001 340 16664ft 322kts
23-Sep-17 17:34 36.596217 -121.471524 342 14696ft 316kts
23-Sep-17 17:35 36.677292 -121.506089 342 12702ft 309kts
23-Sep-17 17:36 36.756726 -121.539717 341 11015ft 296kts
23-Sep-17 17:37 36.834082 -121.572636 341 11014ft 303kts
23-Sep-17 17:38 36.909834 -121.604904 342 10316ft 269kts
23-Sep-17 17:39 36.978484 -121.634059 342 8834ft 267kts
23-Sep-17 17:40 37.046466 -121.662934 341 7309ft 264kts
23-Sep-17 17:41 37.113126 -121.687456 345 5758ft 260kts
23-Sep-17 17:42 37.174032 -121.725063 321 4183ft 249kts
23-Sep-17 17:43 37.221686 -121.775874 319 3541ft 212kts
23-Sep-17 17:44 37.262515 -121.820371 318 2571ft 180kts
23-Sep-17 17:45 37.295919 -121.856819 317 1630ft 138kts
23-Sep-17 17:46 37.322910 -121.885997 319 957ft 127kts
23-Sep-17 17:47 37.349073 -121.914954 315 267ft 128kts
23-Sep-17 17:48 37.366426 -121.934055 320 70ft 19kts
23-Sep-17 17:49 37.369565 -121.935110 47 70ft 6kts
23-Sep-17 17:50 37.369240 -121.932260 138 70ft 13kts
23-Sep-17 17:51 37.366848 -121.929634 138 70ft 9kts
23-Sep-17 17:52 37.364876 -121.927260 90 70ft 6kts
23-Sep-17 17:53 37.364900 -121.925373 47 70ft 3kts
23-Sep-17 17:54 37.364925 -121.925338 47 70ft 0kts
23-Sep-17 17:55 37.364925 -121.925338 47 70ft 0kts

Navigation Log

Ident Type
Flight plan parsing failed, navigation log unavailable